Time;durP1;ratioP1;P1;durP2;ratioP2;P2;SDS_P1;SDS_P2;PMS_P1;PMS_P2;Temp;Humidity;BMP_temperature;BMP_pressure;BME280_temperature;BME280_humidity;BME280_pressure;Samples;Min_cycle;Max_cycle;Signal;HPM_P1;HPM_P2
2022/12/23 00:00:10;;;;;;;31.57;12.80;;;7.30;99.90;;;;;;5045478;28;20051;-67
2022/12/23 00:02:35;;;;;;;29.05;12.23;;;7.30;99.90;;;;;;5028905;28;20361;-67
2022/12/23 00:05:01;;;;;;;28.10;11.83;;;7.40;99.90;;;;;;5039886;28;20057;-67
2022/12/23 00:07:27;;;;;;;29.63;12.60;;;7.40;99.90;;;;;;5040591;28;20446;-68
2022/12/23 00:09:52;;;;;;;28.77;11.87;;;7.40;99.90;;;;;;5050040;28;20122;-67
2022/12/23 00:15:05;;;;;;;30.77;13.82;;;7.40;99.90;;;;;;5026864;28;20302;-68
2022/12/23 00:17:34;;;;;;;27.25;12.13;;;7.40;99.90;;;;;;5043715;28;20136;-67
2022/12/23 00:20:00;;;;;;;27.58;11.93;;;7.40;99.90;;;;;;5032458;28;20053;-67
2022/12/23 00:25:11;;;;;;;32.47;12.25;;;7.40;99.90;;;;;;5035118;28;20049;-67
2022/12/23 00:27:37;;;;;;;25.30;11.52;;;7.40;99.90;;;;;;5044157;28;20450;-68
2022/12/23 00:30:05;;;;;;;28.25;11.15;;;7.40;99.90;;;;;;5044713;28;20103;-67
2022/12/23 00:32:30;;;;;;;31.05;13.18;;;7.40;99.90;;;;;;5031884;28;20485;-68
2022/12/23 00:34:56;;;;;;;37.03;14.37;;;7.40;99.90;;;;;;5043869;28;20060;-68
2022/12/23 00:37:22;;;;;;;37.43;14.40;;;7.40;99.90;;;;;;5044423;28;20121;-67
2022/12/23 00:45:16;;;;;;;31.20;13.88;;;7.40;99.90;;;;;;5040665;28;20045;-66
2022/12/23 00:50:32;;;;;;;31.45;13.65;;;7.40;99.90;;;;;;5040837;28;20044;-66
2022/12/23 00:52:58;;;;;;;34.95;13.65;;;7.40;99.90;;;;;;5039138;28;20351;-66
2022/12/23 00:55:24;;;;;;;34.30;14.45;;;7.40;99.90;;;;;;5043403;28;20053;-66
2022/12/23 00:57:49;;;;;;;35.13;13.75;;;7.40;99.90;;;;;;5036604;28;20126;-66
2022/12/23 01:00:16;;;;;;;30.30;12.60;;;7.40;99.90;;;;;;5042886;28;20036;-67
2022/12/23 01:05:35;;;;;;;28.02;11.95;;;7.40;99.90;;;;;;5038371;28;20534;-66
2022/12/23 01:08:05;;;;;;;28.55;11.77;;;7.40;99.90;;;;;;5031828;28;20071;-66
2022/12/23 01:10:31;;;;;;;29.58;12.30;;;7.40;99.90;;;;;;5034592;28;20175;-66
2022/12/23 01:12:56;;;;;;;27.88;12.25;;;7.40;99.90;;;;;;5024041;28;20123;-66
2022/12/23 01:15:22;;;;;;;30.87;12.23;;;7.30;99.90;;;;;;5043123;28;20170;-66
2022/12/23 01:17:54;;;;;;;31.80;12.88;;;7.40;99.90;;;;;;5042457;28;20106;-66
2022/12/23 01:20:19;;;;;;;35.20;14.20;;;7.40;99.90;;;;;;5021374;28;20110;-66
2022/12/23 01:22:45;;;;;;;35.13;14.67;;;7.40;99.90;;;;;;5043458;28;20449;-66
2022/12/23 01:25:11;;;;;;;36.40;13.17;;;7.40;99.90;;;;;;5025571;28;20043;-66
2022/12/23 01:27:36;;;;;;;35.08;13.32;;;7.40;99.90;;;;;;5036705;28;20076;-66
2022/12/23 01:30:02;;;;;;;36.43;13.80;;;7.40;99.90;;;;;;5044447;28;20060;-66
2022/12/23 01:32:28;;;;;;;30.15;12.30;;;7.40;99.90;;;;;;5042411;28;20052;-66
2022/12/23 01:34:54;;;;;;;30.93;12.60;;;7.40;99.90;;;;;;5042515;28;20494;-66
2022/12/23 01:37:19;;;;;;;32.67;12.73;;;7.40;99.90;;;;;;5043378;28;20386;-66
2022/12/23 01:39:45;;;;;;;29.17;11.53;;;7.50;99.90;;;;;;5024349;28;20113;-66
2022/12/23 01:45:30;;;;;;;34.65;12.57;;;7.50;99.90;;;;;;5042026;28;20103;-66
2022/12/23 01:47:57;;;;;;;32.50;12.75;;;7.50;99.90;;;;;;5018940;28;20053;-66
2022/12/23 01:50:30;;;;;;;28.20;11.45;;;7.50;99.90;;;;;;5043798;28;20481;-66
2022/12/23 01:53:20;;;;;;;32.42;13.20;;;7.40;99.90;;;;;;5017088;28;20053;-66
2022/12/23 01:55:55;;;;;;;33.33;13.57;;;7.50;99.90;;;;;;5042530;28;20120;-66
2022/12/23 01:58:25;;;;;;;38.95;14.88;;;7.50;99.90;;;;;;5044708;28;20478;-66
2022/12/23 02:03:43;;;;;;;40.00;15.40;;;7.50;99.90;;;;;;5046085;28;20040;-66
2022/12/23 02:09:15;;;;;;;38.38;14.80;;;7.50;99.90;;;;;;5043190;28;20132;-66
2022/12/23 02:11:50;;;;;;;43.80;15.40;;;7.50;99.90;;;;;;5045926;28;20095;-66
2022/12/23 02:17:53;;;;;;;39.05;15.45;;;7.50;99.90;;;;;;5012712;28;20064;-66
2022/12/23 02:20:58;;;;;;;44.35;14.90;;;7.50;99.90;;;;;;5043037;28;20041;-66
2022/12/23 02:23:39;;;;;;;46.38;15.95;;;7.50;99.90;;;;;;5026803;28;20044;-66
2022/12/23 02:26:26;;;;;;;45.33;14.30;;;7.40;99.90;;;;;;5001055;28;20045;-66
2022/12/23 02:29:09;;;;;;;42.63;15.00;;;7.50;99.90;;;;;;5021719;28;20453;-66
2022/12/23 02:32:16;;;;;;;42.13;15.25;;;7.50;99.90;;;;;;5042234;28;20049;-66
2022/12/23 02:35:00;;;;;;;44.92;14.20;;;7.50;99.90;;;;;;5027021;28;20053;-67
2022/12/23 02:37:34;;;;;;;40.95;14.88;;;7.50;99.90;;;;;;5019530;28;20044;-66
2022/12/23 02:40:31;;;;;;;42.42;15.52;;;7.50;99.90;;;;;;5046476;28;20509;-66
2022/12/23 02:43:10;;;;;;;41.72;14.25;;;7.50;99.90;;;;;;5028408;28;20502;-67
2022/12/23 02:46:26;;;;;;;38.67;13.45;;;7.50;99.90;;;;;;5039085;28;20466;-66
2022/12/23 02:49:09;;;;;;;40.08;13.10;;;7.50;99.90;;;;;;4976138;28;20045;-69
2022/12/23 02:51:40;;;;;;;38.92;13.45;;;7.50;99.90;;;;;;5045124;28;20045;-66
2022/12/23 02:54:10;;;;;;;35.47;12.75;;;7.50;99.90;;;;;;5034210;28;20069;-66
2022/12/23 02:56:40;;;;;;;33.78;12.25;;;7.50;99.90;;;;;;5044125;28;20134;-66
2022/12/23 02:59:14;;;;;;;39.28;12.07;;;7.40;99.90;;;;;;5046261;28;20049;-66
2022/12/23 03:01:41;;;;;;;36.20;12.95;;;7.40;99.90;;;;;;5045818;28;20119;-66
2022/12/23 03:04:08;;;;;;;30.92;11.10;;;7.40;99.90;;;;;;5047347;28;20508;-66
2022/12/23 03:06:43;;;;;;;37.25;11.80;;;7.40;99.90;;;;;;5048980;28;20048;-66
2022/12/23 03:09:37;;;;;;;31.48;11.10;;;7.40;99.90;;;;;;5049982;28;20533;-66
2022/12/23 03:12:21;;;;;;;30.23;11.52;;;7.40;99.90;;;;;;5043920;28;20037;-66
2022/12/23 03:15:40;;;;;;;36.00;12.15;;;7.40;99.90;;;;;;5031070;28;20049;-66
2022/12/23 03:18:26;;;;;;;33.92;11.30;;;7.40;99.90;;;;;;4990964;28;20045;-66
2022/12/23 03:21:19;;;;;;;40.17;13.77;;;7.40;99.90;;;;;;5004297;28;20072;-68
2022/12/23 03:23:47;;;;;;;32.72;12.00;;;7.40;99.90;;;;;;5036872;28;20159;-66
2022/12/23 03:26:25;;;;;;;39.20;12.93;;;7.40;99.90;;;;;;5049350;28;20060;-66
2022/12/23 03:29:00;;;;;;;31.30;10.88;;;7.40;99.90;;;;;;5049197;28;20067;-66
2022/12/23 03:31:29;;;;;;;36.63;12.48;;;7.40;99.90;;;;;;5033821;28;20041;-66
2022/12/23 03:34:17;;;;;;;34.28;11.30;;;7.40;99.90;;;;;;5042735;28;20589;-66
2022/12/23 03:36:46;;;;;;;;;;;7.40;99.90;;;;;;5042275;28;20056;-66
2022/12/23 03:39:16;;;;;;;30.35;9.77;;;7.40;99.90;;;;;;5049339;28;20267;-67
2022/12/23 03:41:52;;;;;;;35.05;11.13;;;7.40;99.90;;;;;;5050479;28;20037;-67
2022/12/23 03:44:42;;;;;;;37.38;12.25;;;7.30;99.90;;;;;;5041464;28;20650;-66
2022/12/23 03:47:18;;;;;;;35.22;10.88;;;7.40;99.90;;;;;;5032645;28;20116;-66
2022/12/23 03:50:08;;;;;;;32.27;12.43;;;7.40;99.90;;;;;;5047978;28;20037;-66
2022/12/23 03:52:44;;;;;;;31.02;11.20;;;7.30;99.90;;;;;;5045056;28;20316;-66
2022/12/23 03:55:17;;;;;;;33.47;11.93;;;7.30;99.90;;;;;;5029801;28;20571;-66
2022/12/23 03:58:08;;;;;;;30.75;11.57;;;7.30;99.90;;;;;;5042718;28;20046;-66
2022/12/23 04:00:44;;;;;;;31.50;10.88;;;7.30;99.90;;;;;;5035402;28;20037;-66
2022/12/23 04:03:34;;;;;;;37.45;11.00;;;7.30;99.90;;;;;;5044871;28;20136;-66
2022/12/23 04:06:03;;;;;;;34.85;10.88;;;7.30;99.90;;;;;;5035682;28;20048;-66
2022/12/23 04:08:33;;;;;;;42.80;12.65;;;7.30;99.90;;;;;;5028831;28;20056;-66
2022/12/23 04:11:00;;;;;;;30.15;11.20;;;7.30;99.90;;;;;;5020911;28;20092;-66
2022/12/23 04:13:27;;;;;;;30.10;10.75;;;7.30;99.90;;;;;;5045068;28;20045;-66
2022/12/23 04:15:53;;;;;;;36.72;12.82;;;7.30;99.90;;;;;;5045710;28;20044;-66
2022/12/23 04:18:19;;;;;;;34.97;10.67;;;7.30;99.90;;;;;;5042130;28;20063;-66
2022/12/23 04:20:44;;;;;;;35.83;11.97;;;7.30;99.90;;;;;;5041475;28;20499;-66
2022/12/23 04:23:10;;;;;;;37.77;11.93;;;7.30;99.90;;;;;;5047118;28;20033;-66
2022/12/23 04:25:36;;;;;;;28.43;11.43;;;7.30;99.90;;;;;;5047412;28;20033;-67
2022/12/23 04:28:02;;;;;;;29.97;11.17;;;7.30;99.90;;;;;;5043648;28;20049;-66
2022/12/23 04:30:27;;;;;;;35.73;11.40;;;7.30;99.90;;;;;;5043752;28;20103;-66
2022/12/23 04:32:53;;;;;;;38.20;11.27;;;7.30;99.90;;;;;;5028932;28;20075;-66
2022/12/23 04:35:18;;;;;;;31.07;11.17;;;7.30;99.90;;;;;;5013359;28;20098;-66
2022/12/23 04:37:44;;;;;;;23.97;8.80;;;7.30;99.90;;;;;;5042749;28;20334;-66
2022/12/23 04:40:10;;;;;;;31.30;11.17;;;7.20;99.90;;;;;;5046085;28;20040;-66
2022/12/23 04:42:36;;;;;;;27.87;10.43;;;7.30;99.90;;;;;;5043004;28;20052;-66
2022/12/23 04:45:02;;;;;;;25.45;9.48;;;7.30;99.90;;;;;;5027931;28;20300;-66
2022/12/23 04:47:28;;;;;;;22.08;8.57;;;7.30;99.90;;;;;;5038787;28;20103;-66
2022/12/23 04:49:53;;;;;;;32.47;11.23;;;7.20;99.90;;;;;;5038497;28;20040;-66
2022/12/23 04:52:19;;;;;;;26.63;10.17;;;7.30;99.90;;;;;;5041323;28;20537;-66
2022/12/23 04:54:45;;;;;;;31.90;11.00;;;7.30;99.90;;;;;;5044826;28;20033;-66
2022/12/23 04:57:10;;;;;;;29.40;10.90;;;7.30;99.90;;;;;;5043659;28;22152;-66
2022/12/23 04:59:36;;;;;;;30.93;11.13;;;7.30;99.90;;;;;;5046608;28;20037;-66
2022/12/23 05:02:02;;;;;;;28.87;10.93;;;7.20;99.90;;;;;;5043409;28;20041;-66
2022/12/23 05:04:27;;;;;;;32.43;9.87;;;7.20;99.90;;;;;;5046670;28;20044;-66
2022/12/23 05:06:53;;;;;;;29.67;10.17;;;7.20;99.90;;;;;;5042703;28;20037;-66
2022/12/23 05:09:19;;;;;;;29.13;10.93;;;7.20;99.90;;;;;;5040180;28;20055;-66
2022/12/23 05:11:44;;;;;;;37.47;11.60;;;7.20;99.90;;;;;;5045840;28;20391;-66
2022/12/23 05:14:10;;;;;;;35.80;12.43;;;7.20;99.90;;;;;;5046715;28;20067;-66
2022/12/23 05:16:36;;;;;;;33.38;11.07;;;7.20;99.90;;;;;;5028110;28;20037;-66
2022/12/23 05:19:02;;;;;;;31.85;10.98;;;7.20;99.90;;;;;;5042066;28;20186;-66
2022/12/23 05:21:28;;;;;;;28.00;10.63;;;7.20;99.90;;;;;;5029582;28;20131;-66
2022/12/23 05:23:54;;;;;;;29.10;9.23;;;7.20;99.90;;;;;;5047699;28;20041;-67
2022/12/23 05:26:19;;;;;;;29.35;9.77;;;7.20;99.90;;;;;;5043614;28;20037;-66
2022/12/23 05:28:45;;;;;;;29.27;10.57;;;7.20;99.90;;;;;;5045365;28;20179;-66
2022/12/23 05:31:12;;;;;;;28.70;10.23;;;7.10;99.90;;;;;;5044970;28;20122;-66
2022/12/23 05:33:38;;;;;;;27.50;9.32;;;7.10;99.90;;;;;;5045213;28;20495;-66
2022/12/23 05:36:04;;;;;;;29.13;9.57;;;7.20;99.90;;;;;;5030594;28;20438;-66
2022/12/23 05:38:30;;;;;;;24.15;8.85;;;7.10;99.90;;;;;;5046033;28;20037;-67
2022/12/23 05:40:56;;;;;;;24.08;8.60;;;7.00;99.90;;;;;;5029657;28;20052;-66
2022/12/23 05:43:22;;;;;;;26.05;9.82;;;7.10;99.90;;;;;;5046928;28;20394;-66
2022/12/23 05:45:48;;;;;;;25.63;9.30;;;7.10;99.90;;;;;;5028931;28;20045;-66
2022/12/23 05:48:14;;;;;;;;;;;7.10;99.90;;;;;;5036278;28;20136;-66
2022/12/23 05:50:40;;;;;;;23.77;7.30;;;7.10;99.90;;;;;;5045901;28;20015;-66
2022/12/23 05:53:06;;;;;;;26.33;9.13;;;7.10;99.90;;;;;;5039473;28;20430;-66
2022/12/23 05:55:32;;;;;;;24.40;7.82;;;7.10;99.90;;;;;;5036800;28;20045;-66
2022/12/23 05:57:58;;;;;;;26.05;8.70;;;7.10;99.90;;;;;;5040400;28;20115;-66
2022/12/23 06:00:24;;;;;;;30.10;9.90;;;7.10;99.90;;;;;;5039933;28;20053;-66
2022/12/23 06:02:49;;;;;;;21.80;9.00;;;7.10;99.90;;;;;;5039134;28;20040;-66
2022/12/23 06:05:15;;;;;;;27.17;9.63;;;7.00;99.90;;;;;;5045177;28;20040;-66
2022/12/23 06:07:41;;;;;;;22.73;9.20;;;7.00;99.90;;;;;;5026591;28;20041;-66
2022/12/23 06:10:08;;;;;;;16.80;7.60;;;7.00;99.90;;;;;;5041690;28;20045;-66
2022/12/23 06:12:34;;;;;;;21.83;8.65;;;6.90;99.90;;;;;;5019156;28;20212;-66
2022/12/23 06:15:00;;;;;;;27.13;9.13;;;6.90;99.90;;;;;;5038942;28;20460;-66
2022/12/23 06:17:25;;;;;;;29.30;9.43;;;6.90;99.90;;;;;;5040372;28;20053;-66
2022/12/23 06:19:51;;;;;;;30.37;8.20;;;6.90;99.90;;;;;;5041357;28;20044;-66
2022/12/23 06:22:19;;;;;;;34.67;9.77;;;6.80;99.90;;;;;;5045619;28;20048;-66
2022/12/23 06:24:45;;;;;;;27.33;9.00;;;6.80;99.90;;;;;;5044639;28;20243;-66
2022/12/23 06:27:10;;;;;;;24.57;8.00;;;6.80;99.90;;;;;;5045641;28;20402;-66
2022/12/23 06:29:36;;;;;;;24.63;9.03;;;6.80;99.90;;;;;;5022810;28;20060;-66
2022/12/23 06:32:02;;;;;;;31.43;8.17;;;6.80;99.90;;;;;;5044082;28;20041;-67
2022/12/23 06:34:28;;;;;;;27.53;8.50;;;6.80;99.90;;;;;;5027462;28;20601;-66
2022/12/23 06:36:53;;;;;;;30.30;7.60;;;6.80;99.90;;;;;;5031109;28;20276;-66
2022/12/23 06:39:19;;;;;;;37.70;8.43;;;6.80;99.90;;;;;;5046148;28;20068;-66
2022/12/23 06:41:45;;;;;;;30.90;9.07;;;6.80;99.90;;;;;;5048364;28;20037;-66
2022/12/23 06:44:10;;;;;;;30.77;8.75;;;6.70;99.90;;;;;;5044002;28;20040;-66
2022/12/23 06:46:36;;;;;;;32.27;8.90;;;6.70;99.90;;;;;;5031837;28;20045;-66
2022/12/23 06:49:02;;;;;;;32.13;8.37;;;6.80;99.90;;;;;;5032721;28;20523;-66
2022/12/23 06:51:28;;;;;;;44.85;9.30;;;6.80;99.90;;;;;;5050118;28;20044;-66
2022/12/23 06:53:54;;;;;;;40.33;9.43;;;6.80;99.90;;;;;;5046745;28;20080;-66
2022/12/23 06:56:19;;;;;;;31.73;9.23;;;6.70;99.90;;;;;;5048436;28;20289;-66
2022/12/23 06:58:45;;;;;;;30.85;8.35;;;6.70;99.90;;;;;;5029777;28;20104;-66
2022/12/23 07:01:11;;;;;;;36.83;10.13;;;6.70;99.90;;;;;;5040263;28;20713;-66
2022/12/23 07:03:36;;;;;;;27.93;9.27;;;6.70;99.90;;;;;;5044533;28;20068;-66
2022/12/23 07:06:02;;;;;;;27.90;8.63;;;6.70;99.90;;;;;;5031666;28;20114;-66
2022/12/23 07:08:28;;;;;;;22.17;7.80;;;6.70;99.90;;;;;;5047487;28;20069;-66
2022/12/23 07:11:02;;;;;;;26.43;9.87;;;6.70;99.90;;;;;;5023974;28;20526;-66
2022/12/23 07:13:28;;;;;;;25.17;9.35;;;6.80;99.90;;;;;;5030731;28;20106;-66
2022/12/23 07:15:54;;;;;;;;;;;6.70;99.90;;;;;;5028438;28;20057;-66
2022/12/23 07:18:24;;;;;;;18.48;7.72;;;6.70;99.90;;;;;;5047932;28;19969;-66
2022/12/23 07:20:50;;;;;;;22.20;8.50;;;6.70;99.90;;;;;;5044443;28;20469;-66
2022/12/23 07:23:15;;;;;;;26.55;8.50;;;6.80;99.90;;;;;;5048730;28;20414;-66
2022/12/23 07:25:41;;;;;;;25.27;8.97;;;6.80;99.90;;;;;;5048582;28;20048;-67
2022/12/23 07:28:07;;;;;;;19.65;7.90;;;6.80;99.90;;;;;;5041583;28;20496;-66
2022/12/23 07:30:32;;;;;;;24.13;8.47;;;6.80;99.90;;;;;;5042652;28;20048;-66
2022/12/23 07:32:58;;;;;;;24.63;8.90;;;6.80;99.90;;;;;;5048682;28;20049;-66
2022/12/23 07:35:24;;;;;;;20.75;8.65;;;6.80;99.90;;;;;;5023251;28;20049;-66
2022/12/23 07:37:51;;;;;;;24.67;8.90;;;6.80;99.90;;;;;;5042123;28;20318;-66
2022/12/23 07:40:17;;;;;;;24.77;8.60;;;6.80;99.90;;;;;;5043845;28;20375;-66
2022/12/23 07:42:43;;;;;;;19.57;8.10;;;6.90;99.90;;;;;;5046796;28;20033;-66
2022/12/23 07:45:09;;;;;;;23.23;8.70;;;6.90;99.90;;;;;;5030336;28;20055;-66
2022/12/23 07:47:34;;;;;;;24.50;8.32;;;6.90;99.90;;;;;;5046765;28;20048;-66
2022/12/23 07:50:00;;;;;;;22.20;7.30;;;6.90;99.90;;;;;;5031551;28;20414;-66
2022/12/23 07:52:26;;;;;;;17.10;6.90;;;6.90;99.90;;;;;;5042625;28;20029;-66
2022/12/23 07:54:52;;;;;;;22.30;8.60;;;6.90;99.90;;;;;;5047818;28;20056;-67
2022/12/23 07:57:18;;;;;;;24.10;7.73;;;6.90;99.90;;;;;;5018925;28;20499;-66
2022/12/23 07:59:43;;;;;;;22.73;7.50;;;6.90;99.90;;;;;;5032272;28;20040;-66
2022/12/23 08:02:10;;;;;;;23.07;7.93;;;6.90;99.90;;;;;;5042923;28;20037;-66
2022/12/23 08:04:35;;;;;;;24.23;7.43;;;6.90;99.90;;;;;;5048077;28;20470;-66
2022/12/23 08:07:01;;;;;;;23.93;8.57;;;6.90;99.90;;;;;;5043550;28;20046;-66
2022/12/23 08:09:26;;;;;;;17.77;7.87;;;6.90;99.90;;;;;;5025662;28;20048;-66
2022/12/23 08:11:52;;;;;;;21.57;7.33;;;6.90;99.90;;;;;;5038197;28;20422;-67
2022/12/23 08:14:18;;;;;;;23.30;7.70;;;6.90;99.90;;;;;;5048913;28;20399;-66
2022/12/23 08:16:44;;;;;;;20.92;6.78;;;6.90;99.90;;;;;;5047403;28;20461;-66
2022/12/23 08:19:09;;;;;;;21.53;7.23;;;6.90;99.90;;;;;;5046989;28;20052;-66
2022/12/23 08:21:35;;;;;;;18.03;6.53;;;6.90;99.90;;;;;;5045533;28;20045;-66
2022/12/23 08:24:00;;;;;;;20.17;8.17;;;6.90;99.90;;;;;;5047903;28;20072;-65
2022/12/23 08:26:26;;;;;;;17.23;6.77;;;7.00;99.90;;;;;;5026384;28;20457;-66
2022/12/23 08:28:52;;;;;;;16.30;6.23;;;7.00;99.90;;;;;;5033289;28;20044;-66
2022/12/23 08:31:24;;;;;;;15.13;6.47;;;7.00;99.90;;;;;;5031325;28;20044;-66
2022/12/23 08:33:52;;;;;;;19.45;6.80;;;7.00;99.90;;;;;;5024010;28;20048;-65
2022/12/23 08:36:21;;;;;;;17.88;7.22;;;7.00;99.90;;;;;;5023591;28;20050;-66
2022/12/23 08:38:48;;;;;;;19.60;6.22;;;7.00;99.90;;;;;;5013283;28;20179;-65
2022/12/23 08:41:20;;;;;;;15.20;6.65;;;7.00;99.90;;;;;;5047900;28;20037;-66
2022/12/23 08:43:46;;;;;;;14.75;6.30;;;7.00;99.90;;;;;;5045617;28;20060;-66
2022/12/23 08:46:12;;;;;;;15.85;6.75;;;7.00;99.90;;;;;;5031811;28;20527;-66
2022/12/23 08:48:38;;;;;;;13.18;5.78;;;7.00;99.90;;;;;;5047893;28;20598;-66
2022/12/23 08:51:09;;;;;;;15.50;5.93;;;7.00;99.90;;;;;;5029251;28;20222;-66
2022/12/23 08:53:36;;;;;;;17.40;6.72;;;7.00;99.90;;;;;;5045297;28;20044;-66
2022/12/23 08:56:08;;;;;;;16.75;5.45;;;7.00;99.90;;;;;;5041092;28;20289;-66
2022/12/23 08:58:39;;;;;;;15.02;6.38;;;7.00;99.90;;;;;;5039918;28;20037;-66
2022/12/23 09:01:06;;;;;;;15.30;6.32;;;7.10;99.90;;;;;;5043878;28;20250;-66
2022/12/23 09:03:32;;;;;;;13.75;6.50;;;7.00;99.90;;;;;;5046303;28;20072;-66
2022/12/23 09:06:02;;;;;;;17.70;6.95;;;7.10;99.90;;;;;;5036531;28;20403;-66
2022/12/23 09:08:28;;;;;;;18.20;6.97;;;7.10;99.90;;;;;;5046783;28;20055;-66
2022/12/23 09:10:53;;;;;;;20.53;6.33;;;7.10;99.90;;;;;;5047401;28;20053;-66
2022/12/23 09:13:19;;;;;;;17.77;7.30;;;7.20;99.90;;;;;;5047234;28;20398;-66
2022/12/23 09:15:45;;;;;;;19.67;7.40;;;7.20;99.90;;;;;;5045547;28;20099;-66
2022/12/23 09:18:11;;;;;;;21.90;8.70;;;7.20;99.90;;;;;;5047505;28;20115;-65
2022/12/23 09:20:37;;;;;;;20.50;8.45;;;7.20;99.90;;;;;;5046881;28;20045;-66
2022/12/23 09:23:04;;;;;;;21.50;8.40;;;7.20;99.90;;;;;;5044959;28;20036;-65
2022/12/23 09:25:30;;;;;;;;;;;7.30;99.90;;;;;;5043854;28;20444;-65
2022/12/23 09:27:55;;;;;;;14.50;6.40;;;7.30;99.90;;;;;;5045081;28;19999;-66
2022/12/23 09:30:21;;;;;;;15.47;5.77;;;7.30;99.90;;;;;;5042075;28;20501;-66
2022/12/23 09:32:47;;;;;;;17.17;6.97;;;7.30;99.90;;;;;;5038343;28;20041;-66
2022/12/23 09:35:12;;;;;;;17.00;6.70;;;7.30;99.90;;;;;;5045844;28;20053;-66
2022/12/23 09:37:38;;;;;;;16.70;6.73;;;7.30;99.90;;;;;;5046797;28;20037;-66
2022/12/23 09:40:06;;;;;;;16.63;6.57;;;7.40;99.90;;;;;;5040938;28;20040;-66
2022/12/23 09:43:02;;;;;;;18.63;7.20;;;7.40;99.90;;;;;;5042164;28;20040;-66
2022/12/23 09:45:47;;;;;;;19.27;6.82;;;7.50;99.90;;;;;;5043682;28;20044;-66
2022/12/23 09:48:24;;;;;;;17.05;7.13;;;7.50;99.90;;;;;;5046439;28;20497;-66
2022/12/23 09:50:50;;;;;;;18.75;7.30;;;7.60;99.90;;;;;;5040895;28;20064;-66
2022/12/23 09:53:26;;;;;;;20.10;6.80;;;7.60;99.90;;;;;;5046425;28;20107;-66
2022/12/23 09:56:14;;;;;;;18.17;6.85;;;7.60;99.90;;;;;;5045006;28;20064;-66
2022/12/23 09:58:47;;;;;;;21.88;7.70;;;7.60;99.90;;;;;;5040363;28;20033;-66
2022/12/23 10:01:38;;;;;;;22.70;8.10;;;7.60;99.90;;;;;;5041050;28;20395;-66
2022/12/23 10:04:34;;;;;;;17.75;7.25;;;7.60;99.90;;;;;;5041064;28;20171;-66
2022/12/23 10:07:03;;;;;;;17.83;7.18;;;7.60;99.90;;;;;;5045030;28;20037;-67
2022/12/23 10:09:32;;;;;;;18.75;7.05;;;7.70;99.90;;;;;;5038528;28;20044;-66
2022/12/23 10:11:59;;;;;;;19.13;6.80;;;7.70;99.90;;;;;;5040188;28;20057;-66
2022/12/23 10:14:33;;;;;;;20.23;7.40;;;7.70;99.90;;;;;;5044809;28;20492;-66
2022/12/23 10:17:25;;;;;;;22.48;7.53;;;7.70;99.90;;;;;;5044281;28;20041;-66
2022/12/23 10:19:56;;;;;;;20.33;7.85;;;7.70;99.90;;;;;;5045184;28;20067;-66
2022/12/23 10:22:34;;;;;;;17.85;6.75;;;7.70;99.90;;;;;;5043215;28;20055;-66
2022/12/23 10:25:02;;;;;;;19.63;7.85;;;7.70;99.90;;;;;;5044223;28;20485;-66
2022/12/23 10:27:35;;;;;;;20.80;7.35;;;7.70;99.90;;;;;;5038728;28;20057;-66
2022/12/23 10:30:26;;;;;;;20.27;7.15;;;7.80;99.90;;;;;;5039376;28;20048;-66
2022/12/23 10:33:12;;;;;;;19.75;6.78;;;7.80;99.90;;;;;;5046323;28;20076;-66
2022/12/23 10:36:11;;;;;;;16.45;6.85;;;7.80;99.90;;;;;;5042344;28;20079;-66
2022/12/23 10:38:53;;;;;;;19.75;7.35;;;7.80;99.90;;;;;;5043918;28;20474;-66
2022/12/23 10:41:24;;;;;;;19.70;6.75;;;7.80;99.90;;;;;;5037981;28;20045;-66
2022/12/23 10:44:20;;;;;;;17.17;7.50;;;7.70;99.90;;;;;;5041994;28;20207;-66
2022/12/23 10:47:12;;;;;;;20.42;6.95;;;7.80;99.90;;;;;;5040722;28;20077;-65
2022/12/23 10:49:59;;;;;;;15.43;6.22;;;7.90;99.90;;;;;;5025574;28;20095;-65
2022/12/23 10:52:30;;;;;;;20.48;6.25;;;7.80;99.90;;;;;;5042149;28;20204;-65
2022/12/23 10:54:55;;;;;;;17.90;6.72;;;7.80;99.90;;;;;;5041034;28;20056;-65
2022/12/23 10:57:23;;;;;;;17.27;6.33;;;7.80;99.90;;;;;;5026659;28;20407;-65
2022/12/23 10:59:49;;;;;;;18.48;7.07;;;7.70;99.90;;;;;;5006319;28;20418;-65
2022/12/23 11:02:14;;;;;;;17.73;5.50;;;7.80;99.90;;;;;;5044159;28;20119;-65
2022/12/23 11:04:43;;;;;;;16.73;6.53;;;7.80;99.90;;;;;;5045143;28;20051;-66
2022/12/23 11:07:23;;;;;;;13.85;6.05;;;7.80;99.90;;;;;;5040085;28;20534;-65
2022/12/23 11:09:59;;;;;;;21.65;6.95;;;7.80;99.90;;;;;;5014678;28;20207;-65
2022/12/23 11:12:40;;;;;;;18.23;6.73;;;7.80;99.90;;;;;;5045132;28;20568;-66
2022/12/23 11:15:32;;;;;;;16.10;6.15;;;7.80;99.90;;;;;;5016660;28;20076;-65
2022/12/23 11:18:00;;;;;;;15.48;6.55;;;7.90;99.90;;;;;;5031746;22;20049;-71
2022/12/23 11:20:28;;;;;;;17.05;6.78;;;7.90;99.90;;;;;;5043076;28;20037;-70
2022/12/23 11:23:00;;;;;;;16.63;5.40;;;7.90;99.90;;;;;;5041357;28;20112;-71
2022/12/23 11:25:33;;;;;;;18.90;6.60;;;7.90;99.90;;;;;;5032408;28;20406;-70
2022/12/23 11:28:04;;;;;;;15.48;6.10;;;7.90;99.90;;;;;;5045275;28;20442;-70
2022/12/23 11:30:34;;;;;;;16.13;6.20;;;7.90;99.90;;;;;;5042172;28;20106;-70
2022/12/23 11:33:00;;;;;;;17.15;6.35;;;7.90;99.90;;;;;;5033111;28;20047;-70
2022/12/23 11:35:27;;;;;;;14.27;5.85;;;7.90;99.90;;;;;;5037011;28;20498;-72
2022/12/23 11:37:54;;;;;;;12.65;6.30;;;7.90;99.90;;;;;;5030324;28;20041;-71
2022/12/23 11:40:28;;;;;;;16.38;6.82;;;7.90;99.90;;;;;;5032799;28;20414;-71
2022/12/23 11:43:00;;;;;;;13.65;5.97;;;7.90;99.90;;;;;;5025788;28;20157;-70
2022/12/23 11:45:32;;;;;;;13.00;5.80;;;7.90;99.90;;;;;;5046570;28;20509;-70
2022/12/23 11:47:58;;;;;;;13.93;6.05;;;7.90;99.90;;;;;;5026643;28;20059;-70
2022/12/23 11:50:29;;;;;;;17.73;6.37;;;7.90;99.90;;;;;;5047521;28;20052;-70
2022/12/23 11:53:13;;;;;;;15.43;6.55;;;7.90;99.90;;;;;;5039919;28;20036;-70
2022/12/23 11:55:55;;;;;;;16.20;6.50;;;7.90;99.90;;;;;;5046057;28;20070;-70
2022/12/23 11:58:22;;;;;;;16.67;6.40;;;7.90;99.90;;;;;;5042450;28;20036;-71
2022/12/23 12:00:53;;;;;;;;;;;7.90;99.90;;;;;;5033317;28;20044;-69
2022/12/23 12:03:22;;;;;;;15.98;5.88;;;7.80;99.90;;;;;;5046660;28;19931;-70
2022/12/23 12:05:53;;;;;;;13.32;5.93;;;7.80;99.90;;;;;;5025334;28;20396;-69
2022/12/23 12:08:31;;;;;;;15.48;5.68;;;7.90;99.90;;;;;;5053828;28;20099;-70
2022/12/23 12:11:37;;;;;;;14.32;6.38;;;7.90;99.90;;;;;;5004542;28;20149;-70
2022/12/23 12:14:06;;;;;;;13.93;5.53;;;7.90;99.90;;;;;;4959983;28;20471;-70
2022/12/23 12:17:01;;;;;;;14.05;5.20;;;7.90;99.90;;;;;;5012225;28;20170;-70
2022/12/23 12:19:32;;;;;;;12.63;5.40;;;8.00;99.90;;;;;;5048902;28;20044;-70
2022/12/23 12:22:14;;;;;;;19.35;7.00;;;7.90;99.90;;;;;;5040650;28;20055;-70
2022/12/23 12:24:55;;;;;;;15.38;6.10;;;8.00;99.90;;;;;;5026407;28;20040;-70
2022/12/23 12:27:30;;;;;;;13.02;5.30;;;8.00;99.90;;;;;;5030008;28;20045;-75
2022/12/23 12:30:16;;;;;;;13.20;6.28;;;8.00;99.90;;;;;;5029587;28;20041;-76
2022/12/23 12:33:03;;;;;;;11.85;5.88;;;8.00;99.90;;;;;;5045607;28;20029;-71
2022/12/23 12:35:50;;;;;;;12.38;5.35;;;8.00;99.90;;;;;;5024554;28;20041;-70
2022/12/23 12:38:26;;;;;;;16.40;5.15;;;7.90;99.90;;;;;;5019895;28;20044;-70
2022/12/23 12:41:09;;;;;;;15.30;5.90;;;7.90;99.90;;;;;;5025071;28;20036;-70
2022/12/23 12:43:46;;;;;;;11.73;5.05;;;7.90;99.90;;;;;;5022595;28;20044;-70
2022/12/23 12:46:15;;;;;;;;;;;8.00;99.90;;;;;;5013057;28;20234;-70
2022/12/23 12:48:45;;;;;;;15.02;5.90;;;7.90;99.90;;;;;;5031520;28;19916;-70
2022/12/23 12:51:20;;;;;;;19.48;5.90;;;7.90;99.90;;;;;;5044199;28;20104;-71
2022/12/23 12:53:59;;;;;;;17.70;6.53;;;8.00;99.90;;;;;;5027698;28;20297;-71
2022/12/23 12:56:35;;;;;;;15.55;5.75;;;8.00;99.90;;;;;;5050780;28;20076;-70
2022/12/23 12:59:01;;;;;;;11.73;5.38;;;8.00;99.90;;;;;;5032672;28;20044;-70
2022/12/23 13:01:37;;;;;;;11.93;5.23;;;8.00;99.90;;;;;;5050214;28;20081;-70
2022/12/23 13:04:50;;;;;;;15.48;5.85;;;8.00;99.90;;;;;;5025557;28;20410;-71
2022/12/23 13:07:22;;;;;;;12.10;5.53;;;8.00;99.90;;;;;;4997679;28;20045;-70
2022/12/23 13:09:54;;;;;;;14.50;5.47;;;8.00;99.90;;;;;;5021904;28;20171;-71
2022/12/23 13:12:29;;;;;;;13.82;5.90;;;8.00;99.90;;;;;;5039688;28;20075;-70
2022/12/23 13:15:02;;;;;;;11.02;5.13;;;8.00;99.90;;;;;;5040951;28;20077;-70
2022/12/23 13:18:07;;;;;;;15.30;6.75;;;8.00;99.90;;;;;;5040813;28;20041;-70
2022/12/23 13:20:35;;;;;;;15.77;6.65;;;8.00;99.90;;;;;;5010627;28;20099;-70
2022/12/23 13:23:14;;;;;;;19.10;6.47;;;8.10;99.90;;;;;;5036641;28;20532;-70
2022/12/23 13:25:50;;;;;;;17.77;6.90;;;8.00;99.90;;;;;;5026250;28;20110;-70
2022/12/23 13:28:30;;;;;;;12.73;5.90;;;8.00;99.90;;;;;;5024317;28;20178;-69
2022/12/23 13:31:33;;;;;;;12.57;5.22;;;8.00;99.90;;;;;;5022585;28;20090;-70
2022/12/23 13:34:08;;;;;;;16.50;6.60;;;8.00;99.90;;;;;;5037231;28;20044;-70
2022/12/23 13:37:05;;;;;;;19.10;6.63;;;7.90;99.90;;;;;;5024664;28;20064;-70